Time;durP1;ratioP1;P1;durP2;ratioP2;P2;SDS_P1;SDS_P2;PMS_P1;PMS_P2;Temp;Humidity;BMP_temperature;BMP_pressure;BME280_temperature;BME280_humidity;BME280_pressure;Samples;Min_cycle;Max_cycle;Signal;HPM_P1;HPM_P2
2022/01/12 00:00:38;;;;;;;22.07;11.30;;;4.90;93.10;;;;;;5108934;28;20080;-73
2022/01/12 00:03:03;;;;;;;21.27;11.40;;;4.90;93.10;;;;;;5091783;28;20455;-73
2022/01/12 00:05:29;;;;;;;19.17;10.60;;;4.80;93.20;;;;;;5092247;28;20055;-73
2022/01/12 00:07:55;;;;;;;22.03;10.27;;;4.80;93.30;;;;;;5109072;28;20026;-76
2022/01/12 00:10:21;;;;;;;22.13;12.03;;;4.80;93.40;;;;;;5093374;28;20055;-76
2022/01/12 00:12:47;;;;;;;25.63;11.70;;;4.70;93.40;;;;;;5109072;28;20128;-76
2022/01/12 00:15:14;;;;;;;22.53;11.80;;;4.80;93.40;;;;;;5092106;28;20032;-76
2022/01/12 00:17:40;;;;;;;24.23;12.27;;;4.70;93.60;;;;;;5112019;28;20391;-76
2022/01/12 00:20:05;;;;;;;21.67;11.13;;;4.70;94.00;;;;;;5096886;28;20077;-75
2022/01/12 00:22:33;;;;;;;22.87;11.83;;;4.70;94.10;;;;;;5095782;28;20036;-75
2022/01/12 00:35:34;;;;;;;22.73;11.30;;;4.50;94.40;;;;;;5096462;28;20028;-75
2022/01/12 00:38:00;;;;;;;19.60;10.33;;;4.50;94.50;;;;;;5096460;28;20051;-75
2022/01/12 00:40:26;;;;;;;25.13;11.77;;;4.50;94.60;;;;;;5096399;28;20121;-75
2022/01/12 00:42:52;;;;;;;23.70;11.80;;;4.40;94.80;;;;;;5096341;28;20024;-75
2022/01/12 00:45:19;;;;;;;22.63;12.63;;;4.40;94.80;;;;;;5096390;28;20081;-75
2022/01/12 00:47:44;;;;;;;23.00;12.23;;;4.40;94.90;;;;;;5112033;28;20028;-75
2022/01/12 00:50:10;;;;;;;24.83;13.07;;;4.30;94.90;;;;;;5096126;28;20032;-75
2022/01/12 00:52:36;;;;;;;24.20;11.30;;;4.40;95.00;;;;;;5112001;28;20047;-71
2022/01/12 00:55:02;;;;;;;28.73;13.77;;;4.40;95.10;;;;;;5094860;28;20476;-71
2022/01/12 00:57:30;;;;;;;29.37;14.43;;;4.40;95.40;;;;;;5095967;28;20511;-71
2022/01/12 00:59:56;;;;;;;23.00;12.93;;;4.40;95.50;;;;;;5095901;28;20039;-71
2022/01/12 01:02:22;;;;;;;28.33;14.83;;;4.40;95.60;;;;;;5095686;28;20051;-72
2022/01/12 01:04:48;;;;;;;27.67;15.17;;;4.40;95.80;;;;;;5094638;28;20480;-72
2022/01/12 01:07:13;;;;;;;26.93;14.73;;;4.30;96.00;;;;;;5111400;28;20062;-72
2022/01/12 01:09:44;;;;;;;27.90;15.37;;;4.30;96.10;;;;;;5095857;28;20032;-72
2022/01/12 01:12:10;;;;;;;24.97;13.93;;;4.40;96.20;;;;;;5094785;28;20169;-71
2022/01/12 01:25:39;;;;;;;30.43;16.60;;;4.30;96.60;;;;;;5095609;28;20035;-72
2022/01/12 01:28:06;;;;;;;24.57;14.33;;;4.30;96.60;;;;;;5110408;28;20026;-72
2022/01/12 01:30:36;;;;;;;27.83;16.00;;;4.30;96.70;;;;;;5095284;28;20046;-71
2022/01/12 01:33:06;;;;;;;28.07;16.23;;;4.30;96.80;;;;;;5095250;28;20028;-72
2022/01/12 01:35:37;;;;;;;31.03;15.53;;;4.30;96.90;;;;;;5094266;28;20570;-72
2022/01/12 01:38:05;;;;;;;27.33;15.80;;;4.30;96.90;;;;;;5095221;28;20103;-72
2022/01/12 01:40:33;;;;;;;29.10;17.63;;;4.30;97.00;;;;;;5095005;28;20051;-72
2022/01/12 01:53:43;;;;;;;33.55;17.52;;;4.30;97.30;;;;;;5095326;28;20047;-72
2022/01/12 01:56:08;;;;;;;31.87;16.87;;;4.30;97.40;;;;;;5094181;28;20028;-73
2022/01/12 01:58:34;;;;;;;29.97;17.50;;;4.30;97.40;;;;;;5094720;28;20039;-72
2022/01/12 02:01:01;;;;;;;30.37;17.70;;;4.30;97.40;;;;;;5094476;28;20047;-72
2022/01/12 02:03:29;;;;;;;32.17;17.50;;;4.30;97.40;;;;;;5110522;28;20047;-72
2022/01/12 02:05:55;;;;;;;32.33;18.10;;;4.30;97.50;;;;;;5093536;28;20056;-72
2022/01/12 02:08:21;;;;;;;32.40;17.10;;;4.30;97.40;;;;;;5093603;28;20053;-72
2022/01/12 02:10:55;;;;;;;28.10;15.87;;;4.40;97.50;;;;;;5094822;28;20028;-72
2022/01/12 02:13:22;;;;;;;30.33;17.47;;;4.30;97.50;;;;;;5094334;28;20036;-72
2022/01/12 02:15:49;;;;;;;35.27;16.97;;;4.30;97.40;;;;;;5093503;28;20101;-72
2022/01/12 02:18:32;;;;;;;28.27;16.73;;;4.30;97.40;;;;;;5094434;28;20032;-72
2022/01/12 02:40:18;;;;;;;;;;;4.30;97.70;;;;;;5093910;28;20039;-72
2022/01/12 02:42:48;;;;;;;30.53;16.50;;;4.30;97.70;;;;;;5092843;28;19908;-72
2022/01/12 02:55:51;;;;;;;36.22;17.92;;;4.30;97.60;;;;;;5093287;28;20069;-72
2022/01/12 02:58:17;;;;;;;31.07;17.17;;;4.40;97.70;;;;;;5109781;28;20436;-72
2022/01/12 03:03:30;;;;;;;;;;;4.40;97.70;;;;;;5093158;28;20139;-73
2022/01/12 03:05:59;;;;;;;37.23;18.20;;;4.30;97.70;;;;;;5095031;28;19911;-73
2022/01/12 03:08:26;;;;;;;38.33;20.27;;;4.30;97.70;;;;;;5093408;28;20046;-72
2022/01/12 03:10:52;;;;;;;34.63;19.13;;;4.30;97.80;;;;;;5093738;28;20063;-72
2022/01/12 03:13:18;;;;;;;39.27;20.27;;;4.30;97.80;;;;;;5093628;28;20115;-73
2022/01/12 03:15:47;;;;;;;42.70;20.67;;;4.30;97.90;;;;;;5093570;28;20032;-72
2022/01/12 03:18:13;;;;;;;36.93;20.53;;;4.30;97.90;;;;;;5093587;28;20040;-72
2022/01/12 03:20:39;;;;;;;42.23;19.50;;;4.30;97.90;;;;;;5093467;28;20059;-73
2022/01/12 03:23:05;;;;;;;42.50;21.50;;;4.30;98.00;;;;;;5093986;28;20054;-72
2022/01/12 03:25:30;;;;;;;44.97;21.70;;;4.30;98.00;;;;;;5109176;28;20465;-72
2022/01/12 03:28:00;;;;;;;37.70;21.23;;;4.30;98.00;;;;;;5092277;28;20430;-72
2022/01/12 03:30:26;;;;;;;47.10;24.33;;;4.30;98.10;;;;;;5092252;28;20043;-72
2022/01/12 03:33:06;;;;;;;41.90;22.27;;;4.30;98.20;;;;;;5093852;28;20472;-72
2022/01/12 03:36:12;;;;;;;50.97;24.10;;;4.30;98.10;;;;;;5092529;28;20052;-72
2022/01/12 03:38:35;;;;;;;42.57;23.30;;;4.30;98.10;;;;;;5092194;28;20036;-73
2022/01/12 03:41:01;;;;;;;45.70;22.87;;;4.30;98.10;;;;;;5093486;28;20032;-72
2022/01/12 03:43:26;;;;;;;41.37;21.70;;;4.30;98.40;;;;;;5093250;28;20020;-72
2022/01/12 03:45:52;;;;;;;45.50;24.13;;;4.30;98.20;;;;;;5092383;28;20028;-71
2022/01/12 03:48:18;;;;;;;47.57;24.33;;;4.30;98.30;;;;;;5109100;28;20017;-71
2022/01/12 03:50:43;;;;;;;46.67;24.17;;;4.20;98.30;;;;;;5093213;28;20020;-71
2022/01/12 03:53:09;;;;;;;48.40;24.50;;;4.20;98.40;;;;;;5097232;28;20499;-71
2022/01/12 03:55:35;;;;;;;44.13;22.93;;;4.20;98.40;;;;;;5096009;28;20024;-71
2022/01/12 03:58:00;;;;;;;42.40;23.53;;;4.20;98.50;;;;;;5097362;28;20085;-72
2022/01/12 04:00:26;;;;;;;44.00;22.80;;;4.20;98.50;;;;;;5095910;28;20028;-72
2022/01/12 04:02:52;;;;;;;37.40;22.37;;;4.30;98.60;;;;;;5096752;28;20039;-71
2022/01/12 04:10:40;;;;;;;39.72;22.42;;;4.30;98.70;;;;;;5095895;28;20079;-71
2022/01/12 04:13:05;;;;;;;49.93;25.17;;;4.30;98.70;;;;;;5112316;28;20425;-71
2022/01/12 04:15:31;;;;;;;43.57;23.67;;;4.30;98.70;;;;;;5095289;28;20123;-72
2022/01/12 04:17:57;;;;;;;43.47;24.00;;;4.30;98.80;;;;;;5078359;28;20142;-72
2022/01/12 04:20:22;;;;;;;43.93;24.00;;;4.30;98.70;;;;;;5096670;28;20028;-71
2022/01/12 04:25:32;;;;;;;39.60;21.67;;;4.40;98.80;;;;;;5096351;28;20036;-71
2022/01/12 04:27:57;;;;;;;44.07;23.63;;;4.40;98.80;;;;;;5095054;28;20399;-71
2022/01/12 04:30:23;;;;;;;43.00;24.47;;;4.40;98.90;;;;;;5096087;28;20099;-71
2022/01/12 04:32:49;;;;;;;45.57;24.27;;;4.40;98.90;;;;;;5096398;28;20024;-71
2022/01/12 04:35:16;;;;;;;43.13;24.83;;;4.30;98.80;;;;;;5095061;28;20131;-72
2022/01/12 04:37:42;;;;;;;43.03;23.30;;;4.40;98.80;;;;;;5095025;28;20028;-72
2022/01/12 04:40:08;;;;;;;41.43;22.53;;;4.30;98.80;;;;;;5096069;28;20028;-72
2022/01/12 04:42:35;;;;;;;42.47;23.80;;;4.30;98.80;;;;;;5095902;28;20081;-72
2022/01/12 04:50:22;;;;;;;43.93;23.80;;;4.20;98.90;;;;;;5096429;28;20028;-72
2022/01/12 04:52:48;;;;;;;45.33;23.70;;;4.30;99.00;;;;;;5096207;28;20073;-72
2022/01/12 04:55:13;;;;;;;45.87;25.07;;;4.30;99.00;;;;;;5096058;28;20030;-71
2022/01/12 04:57:39;;;;;;;42.70;24.17;;;4.40;99.00;;;;;;5096067;28;20043;-72
2022/01/12 05:00:17;;;;;;;45.97;24.30;;;4.40;99.00;;;;;;5096051;28;20391;-71
2022/01/12 05:13:32;;;;;;;46.13;23.50;;;4.40;99.00;;;;;;5095793;28;20051;-71
2022/01/12 05:15:58;;;;;;;49.33;26.37;;;4.40;98.90;;;;;;5094542;28;20055;-72
2022/01/12 05:18:24;;;;;;;45.97;24.73;;;4.40;98.90;;;;;;5095527;28;20079;-72
2022/01/12 05:20:50;;;;;;;45.60;23.53;;;4.40;98.90;;;;;;5095520;28;20145;-72
2022/01/12 05:23:16;;;;;;;48.10;24.03;;;4.40;99.00;;;;;;5094073;28;20083;-71
2022/01/12 05:25:42;;;;;;;43.43;24.67;;;4.30;99.00;;;;;;5095423;28;20040;-72
2022/01/12 05:28:08;;;;;;;43.57;23.43;;;4.40;99.10;;;;;;5095639;28;20437;-71
2022/01/12 05:30:34;;;;;;;45.53;24.53;;;4.40;99.20;;;;;;5094240;28;20036;-72
2022/01/12 05:33:00;;;;;;;45.70;24.70;;;4.40;99.20;;;;;;5095196;28;20461;-72
2022/01/12 05:35:32;;;;;;;45.43;23.40;;;4.40;99.10;;;;;;5111158;28;20023;-72
2022/01/12 05:37:59;;;;;;;43.30;23.63;;;4.40;99.10;;;;;;5095408;28;20072;-72
2022/01/12 05:40:24;;;;;;;47.17;23.87;;;4.40;99.20;;;;;;5077188;28;20435;-72
2022/01/12 05:42:52;;;;;;;45.43;24.17;;;4.40;99.10;;;;;;5095041;28;20111;-72
2022/01/12 05:45:20;;;;;;;45.93;23.93;;;4.40;99.20;;;;;;5095358;28;20031;-71
2022/01/12 05:50:17;;;;;;;46.57;24.77;;;4.40;99.30;;;;;;5094184;28;20025;-72
2022/01/12 05:52:43;;;;;;;46.33;23.83;;;4.50;99.30;;;;;;5094971;28;20380;-72
2022/01/12 05:55:10;;;;;;;49.10;25.57;;;4.50;99.30;;;;;;5094996;28;20035;-72
2022/01/12 05:57:36;;;;;;;52.33;25.70;;;4.50;99.30;;;;;;5095068;28;20491;-72
2022/01/12 06:00:05;;;;;;;47.43;23.90;;;4.50;99.30;;;;;;5093396;28;20032;-72
2022/01/12 06:02:31;;;;;;;48.50;24.50;;;4.50;99.30;;;;;;5094663;28;20040;-72
2022/01/12 06:04:56;;;;;;;47.73;25.37;;;4.50;99.30;;;;;;5094854;28;20035;-72
2022/01/12 06:07:22;;;;;;;44.07;23.97;;;4.50;99.30;;;;;;5094625;28;20024;-72
2022/01/12 06:09:48;;;;;;;56.13;25.70;;;4.50;99.30;;;;;;5094728;28;20020;-73
2022/01/12 06:12:14;;;;;;;48.23;24.27;;;4.50;99.30;;;;;;5099074;28;20036;-72
2022/01/12 06:14:41;;;;;;;51.13;24.13;;;4.50;99.30;;;;;;5112753;28;20108;-72
2022/01/12 06:17:07;;;;;;;46.07;25.00;;;4.50;99.30;;;;;;5111715;28;20538;-72
2022/01/12 06:19:33;;;;;;;51.17;26.27;;;4.50;99.30;;;;;;5111333;28;20023;-72
2022/01/12 06:21:59;;;;;;;46.43;24.83;;;4.50;99.30;;;;;;5113509;28;20070;-72
2022/01/12 06:24:24;;;;;;;45.30;24.83;;;4.50;99.30;;;;;;5112313;28;20375;-72
2022/01/12 06:26:50;;;;;;;43.23;22.67;;;4.40;99.30;;;;;;5095313;28;20412;-72
2022/01/12 06:31:47;;;;;;;48.90;23.00;;;4.50;99.30;;;;;;5114908;28;20487;-75
2022/01/12 06:34:13;;;;;;;49.73;23.87;;;4.40;99.30;;;;;;5114794;28;20018;-75
2022/01/12 06:36:38;;;;;;;54.93;26.90;;;4.40;99.40;;;;;;5113301;28;20019;-75
2022/01/12 06:39:12;;;;;;;48.30;25.07;;;4.50;99.40;;;;;;5113034;28;20467;-75
2022/01/12 06:41:39;;;;;;;51.80;24.98;;;4.50;99.40;;;;;;5112896;28;20329;-75
2022/01/12 06:44:06;;;;;;;54.07;25.13;;;4.50;99.40;;;;;;5112957;28;20467;-75
2022/01/12 06:46:34;;;;;;;54.30;25.17;;;4.50;99.40;;;;;;5113112;28;20114;-75
2022/01/12 06:49:00;;;;;;;58.03;24.50;;;4.50;99.40;;;;;;5113337;28;20035;-75
2022/01/12 06:51:26;;;;;;;51.93;24.80;;;4.40;99.50;;;;;;5114252;28;20031;-75
2022/01/12 06:53:53;;;;;;;62.77;25.90;;;4.40;99.60;;;;;;5113183;28;20115;-75
2022/01/12 06:56:19;;;;;;;56.13;25.47;;;4.50;99.70;;;;;;5114301;28;20089;-75
2022/01/12 06:58:45;;;;;;;67.30;26.53;;;4.60;99.70;;;;;;5112888;28;20472;-75
2022/01/12 07:01:10;;;;;;;63.00;26.63;;;4.50;99.70;;;;;;5114016;28;20055;-75
2022/01/12 07:03:36;;;;;;;57.50;25.63;;;4.60;99.80;;;;;;5109251;28;20040;-76
2022/01/12 07:06:02;;;;;;;64.03;25.80;;;4.60;99.80;;;;;;5098150;28;20067;-76
2022/01/12 07:08:28;;;;;;;59.77;25.83;;;4.60;99.90;;;;;;5098788;28;20119;-76
2022/01/12 07:10:54;;;;;;;67.80;25.63;;;4.60;99.80;;;;;;5112819;28;20111;-76
2022/01/12 07:13:19;;;;;;;51.80;23.77;;;4.70;99.80;;;;;;5113392;28;20221;-76
2022/01/12 07:15:45;;;;;;;62.47;24.80;;;4.70;99.80;;;;;;5113081;28;20028;-76
2022/01/12 07:18:12;;;;;;;52.50;24.00;;;4.60;99.80;;;;;;5111767;28;20023;-75
2022/01/12 07:20:37;;;;;;;57.33;26.63;;;4.70;99.80;;;;;;5110588;28;20164;-76
2022/01/12 07:23:04;;;;;;;50.60;24.27;;;4.70;99.90;;;;;;5109850;28;20147;-76
2022/01/12 07:25:30;;;;;;;60.13;25.47;;;4.70;99.90;;;;;;5110612;28;20019;-75
2022/01/12 07:27:55;;;;;;;49.77;22.67;;;4.70;99.90;;;;;;5116180;28;20028;-76
2022/01/12 07:30:22;;;;;;;52.93;22.77;;;4.70;99.90;;;;;;5115475;28;20031;-76
2022/01/12 07:32:48;;;;;;;48.13;21.10;;;4.70;99.90;;;;;;5115145;28;20035;-76
2022/01/12 07:35:14;;;;;;;43.80;19.70;;;4.60;99.90;;;;;;5115181;28;20040;-76
2022/01/12 07:37:40;;;;;;;42.60;18.83;;;4.70;99.90;;;;;;5115790;28;20036;-75
2022/01/12 07:40:07;;;;;;;39.97;18.33;;;4.70;99.90;;;;;;5096395;28;20028;-75
2022/01/12 07:42:33;;;;;;;43.37;18.13;;;4.70;99.90;;;;;;5115739;28;20073;-76
2022/01/12 07:45:00;;;;;;;41.03;18.30;;;4.70;99.90;;;;;;5115811;28;20031;-75
2022/01/12 07:47:27;;;;;;;39.13;17.90;;;4.80;99.90;;;;;;5114463;28;20511;-76
2022/01/12 07:49:54;;;;;;;40.97;18.43;;;4.80;99.90;;;;;;5116652;28;20047;-76
2022/01/12 07:52:19;;;;;;;41.20;17.70;;;4.80;99.90;;;;;;5116787;28;20032;-76
2022/01/12 07:54:45;;;;;;;40.93;18.10;;;4.80;99.90;;;;;;5116982;28;20506;-76
2022/01/12 07:57:10;;;;;;;37.17;17.20;;;4.80;99.90;;;;;;5116751;28;20046;-76
2022/01/12 07:59:36;;;;;;;39.73;16.60;;;4.90;99.90;;;;;;5117199;28;20062;-76
2022/01/12 08:02:02;;;;;;;33.43;15.90;;;4.90;99.90;;;;;;5115477;28;20043;-77
2022/01/12 08:04:27;;;;;;;41.30;17.67;;;4.90;99.90;;;;;;5117107;28;20028;-76
2022/01/12 08:06:53;;;;;;;36.63;17.07;;;4.90;99.90;;;;;;5117105;28;20027;-73
2022/01/12 08:09:19;;;;;;;40.00;18.17;;;4.90;99.90;;;;;;5082062;28;20023;-72
2022/01/12 08:11:44;;;;;;;47.93;19.17;;;4.90;99.90;;;;;;5116925;28;20023;-72
2022/01/12 08:14:10;;;;;;;40.97;18.47;;;4.90;99.90;;;;;;5116990;28;20023;-72
2022/01/12 08:16:36;;;;;;;44.37;18.33;;;4.90;99.90;;;;;;5115860;28;20027;-73
2022/01/12 08:19:02;;;;;;;38.67;16.20;;;4.90;99.90;;;;;;5115560;28;20031;-72
2022/01/12 08:21:27;;;;;;;43.83;17.30;;;4.90;99.90;;;;;;5115116;28;20042;-72
2022/01/12 08:23:53;;;;;;;45.13;18.73;;;4.90;99.90;;;;;;5114946;28;20491;-72
2022/01/12 08:26:19;;;;;;;40.83;17.40;;;5.00;99.90;;;;;;5098577;28;20028;-72
2022/01/12 08:28:44;;;;;;;43.83;18.57;;;5.10;99.90;;;;;;5115457;28;20027;-72
2022/01/12 08:31:10;;;;;;;44.43;18.30;;;5.10;99.90;;;;;;5116542;28;20051;-72
2022/01/12 08:33:36;;;;;;;41.63;16.57;;;5.00;99.90;;;;;;5116330;28;20467;-72
2022/01/12 08:36:02;;;;;;;41.20;20.27;;;5.00;99.80;;;;;;5116539;28;20031;-72
2022/01/12 08:38:27;;;;;;;44.23;17.33;;;5.10;99.80;;;;;;5116109;27;20471;-72
2022/01/12 08:40:53;;;;;;;47.63;18.20;;;5.10;99.80;;;;;;5116513;28;20057;-72
2022/01/12 08:43:19;;;;;;;45.90;19.20;;;5.10;99.80;;;;;;5116123;28;20039;-72
2022/01/12 08:45:44;;;;;;;45.70;18.50;;;5.20;99.80;;;;;;5114831;28;20024;-72
2022/01/12 08:48:10;;;;;;;47.77;18.97;;;5.20;99.80;;;;;;5116282;28;20015;-73
2022/01/12 08:50:36;;;;;;;47.10;19.17;;;5.20;99.80;;;;;;5114886;28;20020;-72
2022/01/12 08:53:02;;;;;;;45.40;19.20;;;5.20;99.80;;;;;;5115021;28;20031;-72
2022/01/12 08:55:27;;;;;;;45.83;17.57;;;5.30;99.80;;;;;;5115672;28;20055;-73
2022/01/12 08:57:53;;;;;;;42.90;17.73;;;5.30;99.80;;;;;;5114483;28;20487;-72
2022/01/12 09:00:20;;;;;;;47.73;20.30;;;5.30;99.90;;;;;;5115902;28;20106;-72
2022/01/12 09:02:46;;;;;;;42.13;18.23;;;5.40;99.80;;;;;;5115609;28;20131;-72
2022/01/12 09:05:13;;;;;;;39.73;18.10;;;5.40;99.80;;;;;;5114669;28;20107;-72
2022/01/12 09:07:39;;;;;;;43.37;18.03;;;5.40;99.80;;;;;;5115861;28;20058;-72
2022/01/12 09:10:06;;;;;;;42.53;20.10;;;5.40;99.70;;;;;;5115798;28;20019;-72
2022/01/12 09:12:32;;;;;;;41.03;18.90;;;5.40;99.70;;;;;;5113502;28;20081;-72
2022/01/12 09:14:58;;;;;;;43.43;18.13;;;5.40;99.60;;;;;;5112874;28;20031;-72
2022/01/12 09:17:23;;;;;;;44.87;17.97;;;5.60;99.70;;;;;;5114659;28;20027;-73
2022/01/12 09:19:51;;;;;;;42.17;18.37;;;5.50;99.60;;;;;;5086895;28;20039;-72
2022/01/12 09:22:16;;;;;;;43.10;18.47;;;5.50;99.60;;;;;;5094866;28;20116;-72
2022/01/12 09:24:44;;;;;;;45.77;18.23;;;5.60;99.50;;;;;;5096309;28;20103;-72
2022/01/12 09:27:10;;;;;;;41.00;16.93;;;5.50;99.50;;;;;;5115227;28;20053;-72
2022/01/12 09:29:37;;;;;;;42.77;17.97;;;5.60;99.50;;;;;;5114666;28;20020;-72
2022/01/12 09:32:03;;;;;;;45.33;18.20;;;5.60;99.40;;;;;;5093398;28;20016;-72
2022/01/12 09:34:29;;;;;;;43.83;19.43;;;5.60;99.20;;;;;;5093624;28;20039;-72
2022/01/12 09:36:54;;;;;;;46.83;19.57;;;5.60;99.10;;;;;;5097267;28;20407;-72
2022/01/12 09:39:20;;;;;;;37.80;16.83;;;5.70;99.10;;;;;;5113519;28;20035;-72
2022/01/12 09:41:46;;;;;;;40.83;17.83;;;5.70;99.00;;;;;;5095557;28;20032;-72
2022/01/12 09:44:12;;;;;;;37.47;17.50;;;5.70;99.00;;;;;;5106348;28;20031;-73
2022/01/12 09:46:38;;;;;;;44.23;17.30;;;5.70;99.10;;;;;;5114642;27;20035;-73
2022/01/12 09:49:06;;;;;;;40.90;19.00;;;5.60;99.10;;;;;;5109287;28;20066;-72
2022/01/12 09:51:32;;;;;;;41.97;18.20;;;5.80;99.10;;;;;;5095571;28;20111;-72
2022/01/12 09:53:58;;;;;;;40.63;17.47;;;5.80;99.10;;;;;;5092953;28;20473;-72
2022/01/12 09:56:27;;;;;;;42.00;17.30;;;5.80;99.00;;;;;;5112517;28;20050;-73
2022/01/12 09:58:54;;;;;;;36.67;16.47;;;5.90;99.00;;;;;;5101219;28;20082;-76
2022/01/12 10:01:43;;;;;;;40.27;17.03;;;5.90;98.90;;;;;;5092925;28;20442;-77
2022/01/12 10:04:09;;;;;;;41.07;17.57;;;5.90;98.90;;;;;;5097450;28;20034;-77
2022/01/12 10:06:40;;;;;;;35.20;15.53;;;5.90;99.00;;;;;;5094320;28;20039;-77
2022/01/12 10:09:07;;;;;;;38.60;17.07;;;5.90;98.70;;;;;;5108236;28;20403;-77
2022/01/12 10:11:33;;;;;;;39.03;16.50;;;6.00;98.70;;;;;;5108185;28;20103;-77
2022/01/12 10:14:02;;;;;;;39.50;16.90;;;6.00;98.70;;;;;;5105612;28;20063;-76
2022/01/12 10:16:28;;;;;;;39.53;16.13;;;6.00;98.60;;;;;;5114385;28;20369;-76
2022/01/12 10:18:57;;;;;;;40.47;18.30;;;6.00;98.60;;;;;;5095816;28;20028;-76
2022/01/12 10:21:36;;;;;;;33.73;15.73;;;6.10;98.50;;;;;;5111443;28;20065;-76
2022/01/12 10:24:08;;;;;;;41.60;16.17;;;6.10;98.40;;;;;;5099587;28;20502;-76
2022/01/12 10:26:43;;;;;;;40.47;17.40;;;6.10;98.40;;;;;;5107557;28;20030;-77
2022/01/12 10:29:21;;;;;;;33.80;14.90;;;6.00;98.40;;;;;;5114100;28;20019;-76
2022/01/12 10:31:50;;;;;;;39.73;18.10;;;6.10;98.30;;;;;;5113780;28;20026;-76
2022/01/12 10:34:17;;;;;;;43.13;16.47;;;6.10;98.20;;;;;;5097667;28;20131;-76
2022/01/12 10:36:45;;;;;;;43.73;17.17;;;6.10;98.20;;;;;;5102600;28;20030;-76
2022/01/12 10:39:12;;;;;;;39.07;17.33;;;6.10;98.10;;;;;;5108264;28;20451;-76
2022/01/12 10:42:01;;;;;;;34.90;15.33;;;6.20;98.20;;;;;;5100450;28;20035;-76
2022/01/12 10:44:31;;;;;;;36.33;16.53;;;6.20;98.50;;;;;;5109773;28;20047;-76
2022/01/12 10:47:09;;;;;;;38.47;16.20;;;6.40;98.50;;;;;;5111498;28;20015;-76
2022/01/12 10:49:38;;;;;;;35.97;16.50;;;6.40;98.20;;;;;;5110449;28;20069;-76
2022/01/12 10:52:14;;;;;;;36.10;15.90;;;6.40;98.10;;;;;;5108425;28;20028;-76
2022/01/12 10:54:51;;;;;;;43.93;17.53;;;6.50;98.10;;;;;;5110249;28;20031;-74
2022/01/12 10:57:47;;;;;;;37.20;16.30;;;6.50;98.00;;;;;;5112407;28;20468;-74
2022/01/12 11:00:18;;;;;;;38.30;15.73;;;6.50;97.90;;;;;;5094754;28;20035;-73
2022/01/12 11:02:52;;;;;;;32.03;16.13;;;6.60;97.70;;;;;;5109663;28;20036;-74
2022/01/12 11:05:20;;;;;;;;;;;6.60;97.40;;;;;;5113317;28;20015;-74
2022/01/12 11:07:46;;;;;;;36.83;15.43;;;6.60;97.20;;;;;;5110002;28;19995;-76
2022/01/12 11:10:12;;;;;;;33.83;16.20;;;6.60;97.10;;;;;;5112140;28;20111;-76
2022/01/12 11:12:39;;;;;;;34.40;14.83;;;6.50;97.10;;;;;;5108499;28;20098;-76
2022/01/12 11:15:14;;;;;;;39.23;16.07;;;6.50;97.10;;;;;;5110952;28;20077;-76
2022/01/12 11:17:42;;;;;;;36.27;14.57;;;6.50;96.90;;;;;;5113110;28;20023;-76
2022/01/12 11:20:24;;;;;;;30.27;15.37;;;6.50;97.00;;;;;;5112142;28;20383;-73
2022/01/12 11:23:16;;;;;;;36.80;14.97;;;6.50;97.00;;;;;;5110848;28;20027;-74
2022/01/12 11:25:44;;;;;;;32.60;14.37;;;6.50;97.00;;;;;;5103934;28;20383;-74
2022/01/12 11:28:23;;;;;;;30.93;13.93;;;6.60;97.40;;;;;;5111988;28;20023;-73
2022/01/12 11:30:52;;;;;;;31.40;15.30;;;6.60;97.20;;;;;;5112479;28;20514;-73
2022/01/12 11:33:33;;;;;;;33.87;15.83;;;6.70;97.10;;;;;;5099555;28;20388;-73
2022/01/12 11:36:17;;;;;;;38.27;16.23;;;6.70;96.60;;;;;;5101921;28;20027;-73
2022/01/12 11:38:47;;;;;;;34.80;15.05;;;6.80;96.50;;;;;;5112991;28;20031;-76
2022/01/12 11:41:28;;;;;;;34.17;14.90;;;6.70;96.40;;;;;;5092362;28;20480;-76
2022/01/12 11:44:01;;;;;;;34.23;15.27;;;6.80;96.50;;;;;;5099511;28;20035;-76
2022/01/12 11:46:54;;;;;;;39.10;16.53;;;6.80;96.50;;;;;;5113154;28;20090;-76
2022/01/12 11:49:34;;;;;;;32.73;15.20;;;6.90;96.40;;;;;;5112123;28;20054;-76
2022/01/12 11:52:12;;;;;;;36.57;16.30;;;6.90;96.20;;;;;;5108144;28;20016;-76
2022/01/12 11:54:38;;;;;;;36.40;15.93;;;7.00;96.20;;;;;;5092923;28;20032;-76
2022/01/12 11:57:07;;;;;;;35.17;15.73;;;7.00;96.20;;;;;;5095619;28;20070;-76
2022/01/12 11:59:55;;;;;;;33.43;16.30;;;7.00;96.00;;;;;;5114760;28;20012;-75
2022/01/12 12:02:35;;;;;;;35.20;15.57;;;7.10;96.00;;;;;;5110422;28;20057;-75
2022/01/12 12:05:07;;;;;;;37.63;14.67;;;7.10;96.00;;;;;;5113061;28;20324;-76
2022/01/12 12:07:55;;;;;;;31.40;14.80;;;7.10;96.00;;;;;;5113340;28;20007;-75
2022/01/12 12:10:24;;;;;;;30.70;13.80;;;7.20;96.00;;;;;;5114170;28;20023;-75
2022/01/12 12:12:51;;;;;;;33.23;14.03;;;7.30;96.00;;;;;;5115639;28;20085;-75
2022/01/12 12:15:18;;;;;;;34.47;15.10;;;7.30;96.30;;;;;;5116432;28;20031;-76
2022/01/12 12:17:44;;;;;;;30.50;14.33;;;7.30;96.00;;;;;;5117069;28;20023;-78
2022/01/12 12:20:13;;;;;;;30.73;13.47;;;7.40;95.90;;;;;;5116617;28;20104;-77
2022/01/12 12:22:40;;;;;;;35.00;16.20;;;7.40;95.80;;;;;;5117002;28;20024;-78
2022/01/12 12:25:16;;;;;;;29.03;13.17;;;7.40;95.70;;;;;;5116879;28;20400;-77
2022/01/12 12:27:46;;;;;;;29.90;13.73;;;7.30;96.00;;;;;;5116387;28;20100;-78
2022/01/12 12:30:15;;;;;;;34.53;15.37;;;7.30;95.60;;;;;;5116747;28;20361;-78
2022/01/12 12:32:44;;;;;;;32.67;14.80;;;7.30;95.40;;;;;;5116640;28;20077;-77
2022/01/12 12:35:13;;;;;;;31.67;15.03;;;7.30;95.40;;;;;;5116601;28;20024;-78
2022/01/12 12:37:44;;;;;;;35.30;15.03;;;7.30;95.30;;;;;;5116474;28;20023;-77
2022/01/12 12:40:30;;;;;;;36.03;15.87;;;7.20;95.30;;;;;;5116169;28;20457;-78
2022/01/12 12:43:18;;;;;;;36.80;15.03;;;7.30;95.50;;;;;;5116262;27;20118;-77
2022/01/12 12:45:54;;;;;;;31.47;15.10;;;7.30;95.40;;;;;;5116310;28;20466;-77
2022/01/12 12:48:24;;;;;;;34.20;15.00;;;7.40;95.40;;;;;;5116057;28;20161;-75
2022/01/12 12:50:59;;;;;;;30.13;14.97;;;7.40;95.10;;;;;;5116723;28;20034;-75
2022/01/12 12:53:33;;;;;;;32.40;15.13;;;7.50;95.00;;;;;;5116415;28;20032;-75
2022/01/12 12:56:00;;;;;;;32.45;14.98;;;7.50;94.80;;;;;;5116658;27;20343;-75
2022/01/12 12:58:27;;;;;;;30.33;13.30;;;7.50;95.10;;;;;;5115269;28;20024;-75
2022/01/12 13:01:02;;;;;;;32.57;15.47;;;7.50;94.90;;;;;;5114110;28;20024;-75
2022/01/12 13:03:28;;;;;;;32.57;15.57;;;7.60;94.80;;;;;;5112708;28;20032;-75
2022/01/12 13:05:54;;;;;;;31.07;14.27;;;7.60;95.00;;;;;;5115661;28;20022;-75
2022/01/12 13:08:19;;;;;;;30.60;14.37;;;7.60;94.90;;;;;;5114493;28;20384;-76
2022/01/12 13:10:45;;;;;;;35.13;14.90;;;7.60;94.70;;;;;;5115505;28;20069;-76
2022/01/12 13:13:11;;;;;;;31.67;14.30;;;7.60;94.40;;;;;;5113700;28;20034;-75
2022/01/12 13:15:42;;;;;;;30.10;12.93;;;7.50;94.40;;;;;;5112035;28;20483;-75
2022/01/12 13:18:19;;;;;;;36.17;14.33;;;7.40;94.70;;;;;;5112532;28;20027;-76
2022/01/12 13:21:07;;;;;;;30.00;13.50;;;7.50;94.80;;;;;;5106449;28;20016;-75
2022/01/12 13:23:49;;;;;;;31.87;14.93;;;7.50;94.70;;;;;;5106801;28;20110;-75
2022/01/12 13:26:17;;;;;;;35.13;15.47;;;7.50;94.60;;;;;;5113738;28;20030;-75
2022/01/12 13:28:46;;;;;;;37.50;15.83;;;7.50;94.50;;;;;;5115809;28;20503;-76
2022/01/12 13:31:16;;;;;;;30.83;14.80;;;7.60;94.40;;;;;;5097203;28;20081;-75
2022/01/12 13:33:47;;;;;;;37.87;14.73;;;7.50;94.20;;;;;;5113269;28;20027;-75
2022/01/12 13:36:25;;;;;;;30.77;14.53;;;7.40;94.10;;;;;;5114154;28;20057;-75
2022/01/12 13:39:11;;;;;;;31.33;13.37;;;7.40;93.90;;;;;;5099221;28;20035;-75
2022/01/12 13:41:39;;;;;;;33.20;15.20;;;7.40;93.90;;;;;;5111908;28;20031;-75
2022/01/12 13:44:12;;;;;;;42.60;17.80;;;7.30;93.80;;;;;;5100054;28;20028;-76
2022/01/12 13:46:43;;;;;;;34.80;17.67;;;7.30;93.60;;;;;;5112732;28;20026;-76
2022/01/12 13:52:00;;;;;;;45.17;19.10;;;7.10;93.60;;;;;;5114152;28;20036;-76
2022/01/12 13:54:41;;;;;;;39.50;18.53;;;7.00;93.80;;;;;;5113612;28;20031;-75
2022/01/12 13:57:09;;;;;;;40.83;19.87;;;7.00;93.80;;;;;;5113267;28;20058;-75
2022/01/12 13:59:52;;;;;;;40.90;19.70;;;7.00;93.80;;;;;;5112931;28;20024;-76
2022/01/12 14:02:20;;;;;;;43.63;19.97;;;6.90;93.80;;;;;;5094020;28;20044;-75
2022/01/12 14:04:56;;;;;;;44.27;20.50;;;6.90;93.70;;;;;;5095482;28;20107;-76
2022/01/12 14:07:29;;;;;;;41.27;17.80;;;6.90;93.60;;;;;;5113599;28;20026;-73
2022/01/12 14:09:56;;;;;;;34.70;15.43;;;6.80;93.70;;;;;;5105923;28;20467;-73
2022/01/12 14:12:27;;;;;;;34.63;15.27;;;6.80;93.80;;;;;;5099134;28;20028;-73
2022/01/12 14:14:58;;;;;;;42.23;16.60;;;6.80;93.90;;;;;;5095384;28;20057;-73
2022/01/12 14:17:44;;;;;;;32.53;15.20;;;6.80;93.90;;;;;;5113082;28;20059;-73
2022/01/12 14:20:15;;;;;;;35.20;17.70;;;6.80;93.90;;;;;;5109897;28;20028;-73
2022/01/12 14:22:46;;;;;;;33.70;15.83;;;6.80;93.80;;;;;;5095743;28;20131;-73